sensor_id;sensor_type;location;lat;lon;timestamp;P1;durP1;ratioP1;P2;durP2;ratioP2
54993;SDS011;40891;47.242;8.648;2023-05-19T00:01:06;4.53;;;2.50;;
54993;SDS011;40891;47.242;8.648;2023-05-19T00:03:33;6.53;;;2.37;;
54993;SDS011;40891;47.242;8.648;2023-05-19T00:06:01;4.80;;;2.50;;
54993;SDS011;40891;47.242;8.648;2023-05-19T00:08:28;6.80;;;2.80;;
54993;SDS011;40891;47.242;8.648;2023-05-19T00:10:55;7.33;;;2.47;;
54993;SDS011;40891;47.242;8.648;2023-05-19T00:13:21;6.97;;;2.63;;
54993;SDS011;40891;47.242;8.648;2023-05-19T00:15:47;4.87;;;2.43;;
54993;SDS011;40891;47.242;8.648;2023-05-19T00:18:13;6.77;;;2.93;;
54993;SDS011;40891;47.242;8.648;2023-05-19T00:20:40;3.63;;;2.70;;
54993;SDS011;40891;47.242;8.648;2023-05-19T00:23:06;7.90;;;2.90;;
54993;SDS011;40891;47.242;8.648;2023-05-19T00:25:31;6.87;;;2.57;;
54993;SDS011;40891;47.242;8.648;2023-05-19T00:27:56;9.50;;;2.80;;
54993;SDS011;40891;47.242;8.648;2023-05-19T00:30:23;4.33;;;2.57;;
54993;SDS011;40891;47.242;8.648;2023-05-19T00:32:48;7.13;;;2.90;;
54993;SDS011;40891;47.242;8.648;2023-05-19T00:35:14;5.27;;;2.50;;
54993;SDS011;40891;47.242;8.648;2023-05-19T00:37:40;5.07;;;3.03;;
54993;SDS011;40891;47.242;8.648;2023-05-19T00:40:06;4.00;;;2.30;;
54993;SDS011;40891;47.242;8.648;2023-05-19T00:42:32;5.33;;;2.97;;
54993;SDS011;40891;47.242;8.648;2023-05-19T00:44:57;5.57;;;2.43;;
54993;SDS011;40891;47.242;8.648;2023-05-19T00:47:23;6.30;;;2.70;;
54993;SDS011;40891;47.242;8.648;2023-05-19T00:49:48;3.40;;;2.50;;
54993;SDS011;40891;47.242;8.648;2023-05-19T00:52:13;7.17;;;2.80;;
54993;SDS011;40891;47.242;8.648;2023-05-19T00:54:39;4.77;;;2.90;;
54993;SDS011;40891;47.242;8.648;2023-05-19T00:57:04;8.33;;;3.40;;
54993;SDS011;40891;47.242;8.648;2023-05-19T00:59:30;6.10;;;3.03;;
54993;SDS011;40891;47.242;8.648;2023-05-19T01:01:55;5.70;;;2.70;;
54993;SDS011;40891;47.242;8.648;2023-05-19T01:04:21;9.73;;;2.70;;
54993;SDS011;40891;47.242;8.648;2023-05-19T01:06:49;5.27;;;2.73;;
54993;SDS011;40891;47.242;8.648;2023-05-19T01:09:21;6.93;;;2.93;;
54993;SDS011;40891;47.242;8.648;2023-05-19T01:11:47;5.40;;;2.67;;
54993;SDS011;40891;47.242;8.648;2023-05-19T01:14:13;5.20;;;2.63;;
54993;SDS011;40891;47.242;8.648;2023-05-19T01:16:40;5.83;;;2.80;;
54993;SDS011;40891;47.242;8.648;2023-05-19T01:30:32;15.93;;;2.60;;
54993;SDS011;40891;47.242;8.648;2023-05-19T01:33:02;5.67;;;2.80;;
54993;SDS011;40891;47.242;8.648;2023-05-19T01:35:31;4.57;;;2.47;;
54993;SDS011;40891;47.242;8.648;2023-05-19T01:37:59;5.30;;;2.23;;
54993;SDS011;40891;47.242;8.648;2023-05-19T01:40:26;4.67;;;2.83;;
54993;SDS011;40891;47.242;8.648;2023-05-19T01:42:53;6.33;;;2.80;;
54993;SDS011;40891;47.242;8.648;2023-05-19T01:45:20;4.43;;;2.87;;
54993;SDS011;40891;47.242;8.648;2023-05-19T01:47:49;7.53;;;3.07;;
54993;SDS011;40891;47.242;8.648;2023-05-19T01:50:16;5.93;;;2.80;;
54993;SDS011;40891;47.242;8.648;2023-05-19T01:52:42;5.67;;;2.50;;
54993;SDS011;40891;47.242;8.648;2023-05-19T01:55:08;8.30;;;2.53;;
54993;SDS011;40891;47.242;8.648;2023-05-19T02:06:09;5.50;;;2.50;;
54993;SDS011;40891;47.242;8.648;2023-05-19T02:08:57;6.97;;;3.23;;
54993;SDS011;40891;47.242;8.648;2023-05-19T02:14:07;5.67;;;3.10;;
54993;SDS011;40891;47.242;8.648;2023-05-19T02:16:54;8.67;;;3.13;;
54993;SDS011;40891;47.242;8.648;2023-05-19T02:19:25;4.43;;;2.60;;
54993;SDS011;40891;47.242;8.648;2023-05-19T02:21:52;3.40;;;2.90;;
54993;SDS011;40891;47.242;8.648;2023-05-19T02:24:18;5.63;;;2.70;;
54993;SDS011;40891;47.242;8.648;2023-05-19T02:26:44;5.23;;;2.93;;
54993;SDS011;40891;47.242;8.648;2023-05-19T02:29:10;6.67;;;3.00;;
54993;SDS011;40891;47.242;8.648;2023-05-19T02:31:35;5.70;;;2.90;;
54993;SDS011;40891;47.242;8.648;2023-05-19T02:34:01;4.97;;;2.50;;
54993;SDS011;40891;47.242;8.648;2023-05-19T02:36:26;4.60;;;2.70;;
54993;SDS011;40891;47.242;8.648;2023-05-19T02:38:52;4.97;;;3.00;;
54993;SDS011;40891;47.242;8.648;2023-05-19T02:41:17;5.87;;;2.93;;
54993;SDS011;40891;47.242;8.648;2023-05-19T02:43:43;7.67;;;3.00;;
54993;SDS011;40891;47.242;8.648;2023-05-19T02:46:08;7.17;;;2.70;;
54993;SDS011;40891;47.242;8.648;2023-05-19T02:48:34;8.50;;;3.20;;
54993;SDS011;40891;47.242;8.648;2023-05-19T02:50:59;8.77;;;2.90;;
54993;SDS011;40891;47.242;8.648;2023-05-19T02:53:24;4.10;;;2.60;;
54993;SDS011;40891;47.242;8.648;2023-05-19T02:55:50;3.57;;;2.70;;
54993;SDS011;40891;47.242;8.648;2023-05-19T02:58:15;8.03;;;2.80;;
54993;SDS011;40891;47.242;8.648;2023-05-19T03:00:40;4.87;;;2.77;;
54993;SDS011;40891;47.242;8.648;2023-05-19T03:03:08;7.10;;;2.53;;
54993;SDS011;40891;47.242;8.648;2023-05-19T03:05:34;3.80;;;2.87;;
54993;SDS011;40891;47.242;8.648;2023-05-19T03:08:00;5.73;;;2.77;;
54993;SDS011;40891;47.242;8.648;2023-05-19T03:10:25;5.53;;;3.23;;
54993;SDS011;40891;47.242;8.648;2023-05-19T03:12:50;4.07;;;2.60;;
54993;SDS011;40891;47.242;8.648;2023-05-19T03:15:16;6.57;;;2.37;;
54993;SDS011;40891;47.242;8.648;2023-05-19T03:17:42;6.67;;;2.87;;
54993;SDS011;40891;47.242;8.648;2023-05-19T03:20:08;3.83;;;2.60;;
54993;SDS011;40891;47.242;8.648;2023-05-19T03:22:35;5.77;;;2.63;;
54993;SDS011;40891;47.242;8.648;2023-05-19T03:25:01;10.70;;;3.37;;
54993;SDS011;40891;47.242;8.648;2023-05-19T03:27:27;6.63;;;2.90;;
54993;SDS011;40891;47.242;8.648;2023-05-19T03:29:53;7.27;;;3.10;;
54993;SDS011;40891;47.242;8.648;2023-05-19T03:32:18;4.50;;;2.47;;
54993;SDS011;40891;47.242;8.648;2023-05-19T03:34:44;7.20;;;2.47;;
54993;SDS011;40891;47.242;8.648;2023-05-19T03:37:09;4.33;;;2.50;;
54993;SDS011;40891;47.242;8.648;2023-05-19T03:39:34;4.63;;;2.53;;
54993;SDS011;40891;47.242;8.648;2023-05-19T03:42:00;7.43;;;2.93;;
54993;SDS011;40891;47.242;8.648;2023-05-19T03:44:26;5.23;;;2.73;;
54993;SDS011;40891;47.242;8.648;2023-05-19T03:46:51;4.87;;;2.70;;
54993;SDS011;40891;47.242;8.648;2023-05-19T03:49:16;7.53;;;2.93;;
54993;SDS011;40891;47.242;8.648;2023-05-19T03:51:42;4.40;;;2.43;;
54993;SDS011;40891;47.242;8.648;2023-05-19T03:54:08;6.10;;;2.33;;
54993;SDS011;40891;47.242;8.648;2023-05-19T03:56:36;4.53;;;2.33;;
54993;SDS011;40891;47.242;8.648;2023-05-19T03:59:03;5.53;;;2.50;;
54993;SDS011;40891;47.242;8.648;2023-05-19T04:01:31;6.13;;;2.87;;
54993;SDS011;40891;47.242;8.648;2023-05-19T04:03:56;3.27;;;2.50;;
54993;SDS011;40891;47.242;8.648;2023-05-19T04:06:22;4.07;;;2.43;;
54993;SDS011;40891;47.242;8.648;2023-05-19T04:08:47;4.57;;;2.40;;
54993;SDS011;40891;47.242;8.648;2023-05-19T04:11:12;4.53;;;2.43;;
54993;SDS011;40891;47.242;8.648;2023-05-19T04:13:38;2.90;;;2.00;;
54993;SDS011;40891;47.242;8.648;2023-05-19T04:16:03;5.47;;;2.73;;
54993;SDS011;40891;47.242;8.648;2023-05-19T04:18:29;4.53;;;2.63;;
54993;SDS011;40891;47.242;8.648;2023-05-19T04:20:54;4.23;;;2.67;;
54993;SDS011;40891;47.242;8.648;2023-05-19T04:23:20;5.37;;;2.53;;
54993;SDS011;40891;47.242;8.648;2023-05-19T04:25:45;5.73;;;2.70;;
54993;SDS011;40891;47.242;8.648;2023-05-19T04:28:12;4.03;;;2.60;;
54993;SDS011;40891;47.242;8.648;2023-05-19T04:30:38;3.63;;;2.47;;
54993;SDS011;40891;47.242;8.648;2023-05-19T04:33:04;3.83;;;2.40;;
54993;SDS011;40891;47.242;8.648;2023-05-19T04:35:31;11.23;;;3.00;;
54993;SDS011;40891;47.242;8.648;2023-05-19T04:37:57;7.67;;;2.50;;
54993;SDS011;40891;47.242;8.648;2023-05-19T04:40:22;5.33;;;2.50;;
54993;SDS011;40891;47.242;8.648;2023-05-19T04:42:48;4.90;;;2.50;;
54993;SDS011;40891;47.242;8.648;2023-05-19T04:45:16;2.97;;;2.50;;
54993;SDS011;40891;47.242;8.648;2023-05-19T04:47:42;4.53;;;2.63;;
54993;SDS011;40891;47.242;8.648;2023-05-19T04:50:08;5.20;;;2.60;;
54993;SDS011;40891;47.242;8.648;2023-05-19T04:52:35;8.60;;;2.70;;
54993;SDS011;40891;47.242;8.648;2023-05-19T04:55:01;6.33;;;2.57;;
54993;SDS011;40891;47.242;8.648;2023-05-19T04:57:27;4.87;;;2.77;;
54993;SDS011;40891;47.242;8.648;2023-05-19T04:59:52;5.33;;;2.80;;
54993;SDS011;40891;47.242;8.648;2023-05-19T05:02:23;4.13;;;2.50;;
54993;SDS011;40891;47.242;8.648;2023-05-19T05:04:49;8.10;;;2.97;;
54993;SDS011;40891;47.242;8.648;2023-05-19T05:07:14;6.37;;;3.00;;
54993;SDS011;40891;47.242;8.648;2023-05-19T05:09:40;4.27;;;2.80;;
54993;SDS011;40891;47.242;8.648;2023-05-19T05:12:05;5.40;;;2.87;;
54993;SDS011;40891;47.242;8.648;2023-05-19T05:14:32;6.33;;;3.50;;
54993;SDS011;40891;47.242;8.648;2023-05-19T05:16:57;6.70;;;3.20;;
54993;SDS011;40891;47.242;8.648;2023-05-19T05:19:23;4.60;;;3.00;;
54993;SDS011;40891;47.242;8.648;2023-05-19T05:21:49;4.30;;;3.10;;
54993;SDS011;40891;47.242;8.648;2023-05-19T05:24:14;6.20;;;3.80;;
54993;SDS011;40891;47.242;8.648;2023-05-19T05:26:40;4.73;;;3.43;;
54993;SDS011;40891;47.242;8.648;2023-05-19T05:29:07;6.17;;;3.57;;
54993;SDS011;40891;47.242;8.648;2023-05-19T05:31:33;5.30;;;3.50;;
54993;SDS011;40891;47.242;8.648;2023-05-19T05:33:59;7.73;;;3.80;;
54993;SDS011;40891;47.242;8.648;2023-05-19T05:36:24;6.00;;;3.47;;
54993;SDS011;40891;47.242;8.648;2023-05-19T05:38:50;5.10;;;3.30;;
54993;SDS011;40891;47.242;8.648;2023-05-19T05:41:15;9.03;;;3.90;;
54993;SDS011;40891;47.242;8.648;2023-05-19T05:43:41;4.87;;;3.77;;
54993;SDS011;40891;47.242;8.648;2023-05-19T05:46:06;4.47;;;3.30;;
54993;SDS011;40891;47.242;8.648;2023-05-19T05:48:32;6.23;;;3.90;;
54993;SDS011;40891;47.242;8.648;2023-05-19T05:50:57;4.03;;;3.20;;
54993;SDS011;40891;47.242;8.648;2023-05-19T05:53:23;5.57;;;3.60;;
54993;SDS011;40891;47.242;8.648;2023-05-19T05:55:50;5.63;;;3.63;;
54993;SDS011;40891;47.242;8.648;2023-05-19T05:58:17;9.13;;;4.23;;
54993;SDS011;40891;47.242;8.648;2023-05-19T06:00:45;6.43;;;3.97;;
54993;SDS011;40891;47.242;8.648;2023-05-19T06:03:12;4.80;;;3.63;;
54993;SDS011;40891;47.242;8.648;2023-05-19T06:05:38;7.40;;;3.47;;
54993;SDS011;40891;47.242;8.648;2023-05-19T06:08:04;5.83;;;3.60;;
54993;SDS011;40891;47.242;8.648;2023-05-19T06:10:30;4.73;;;3.10;;
54993;SDS011;40891;47.242;8.648;2023-05-19T06:12:55;4.53;;;3.58;;
54993;SDS011;40891;47.242;8.648;2023-05-19T06:15:21;7.65;;;3.50;;
54993;SDS011;40891;47.242;8.648;2023-05-19T06:17:46;5.13;;;3.77;;
54993;SDS011;40891;47.242;8.648;2023-05-19T06:20:12;5.60;;;3.40;;
54993;SDS011;40891;47.242;8.648;2023-05-19T06:22:37;6.72;;;3.30;;
54993;SDS011;40891;47.242;8.648;2023-05-19T06:25:03;7.13;;;3.57;;
54993;SDS011;40891;47.242;8.648;2023-05-19T06:27:30;3.83;;;3.30;;
54993;SDS011;40891;47.242;8.648;2023-05-19T06:29:55;6.77;;;3.30;;
54993;SDS011;40891;47.242;8.648;2023-05-19T06:32:21;8.93;;;3.60;;
54993;SDS011;40891;47.242;8.648;2023-05-19T06:34:46;5.00;;;3.50;;
54993;SDS011;40891;47.242;8.648;2023-05-19T06:37:18;4.73;;;3.27;;
54993;SDS011;40891;47.242;8.648;2023-05-19T06:39:51;6.22;;;3.45;;
54993;SDS011;40891;47.242;8.648;2023-05-19T06:42:20;4.35;;;3.20;;
54993;SDS011;40891;47.242;8.648;2023-05-19T06:44:50;5.10;;;3.38;;
54993;SDS011;40891;47.242;8.648;2023-05-19T06:47:16;5.90;;;3.58;;
54993;SDS011;40891;47.242;8.648;2023-05-19T06:49:42;6.65;;;3.58;;
54993;SDS011;40891;47.242;8.648;2023-05-19T06:52:08;8.52;;;3.63;;
54993;SDS011;40891;47.242;8.648;2023-05-19T06:54:33;9.77;;;3.50;;
54993;SDS011;40891;47.242;8.648;2023-05-19T06:56:59;6.28;;;3.28;;
54993;SDS011;40891;47.242;8.648;2023-05-19T06:59:24;6.05;;;3.35;;
54993;SDS011;40891;47.242;8.648;2023-05-19T07:01:49;6.90;;;3.38;;
54993;SDS011;40891;47.242;8.648;2023-05-19T07:04:15;6.20;;;3.40;;
54993;SDS011;40891;47.242;8.648;2023-05-19T07:06:40;6.50;;;2.95;;
54993;SDS011;40891;47.242;8.648;2023-05-19T07:09:05;6.00;;;3.30;;
54993;SDS011;40891;47.242;8.648;2023-05-19T07:11:31;5.07;;;3.60;;
54993;SDS011;40891;47.242;8.648;2023-05-19T07:13:56;6.28;;;3.90;;
54993;SDS011;40891;47.242;8.648;2023-05-19T07:16:21;3.78;;;2.90;;
54993;SDS011;40891;47.242;8.648;2023-05-19T07:18:47;5.70;;;3.22;;
54993;SDS011;40891;47.242;8.648;2023-05-19T07:21:12;4.55;;;3.05;;
54993;SDS011;40891;47.242;8.648;2023-05-19T07:23:37;6.47;;;3.45;;
54993;SDS011;40891;47.242;8.648;2023-05-19T07:26:03;3.97;;;3.22;;
54993;SDS011;40891;47.242;8.648;2023-05-19T07:28:28;4.88;;;3.78;;
54993;SDS011;40891;47.242;8.648;2023-05-19T07:30:54;5.65;;;3.35;;
54993;SDS011;40891;47.242;8.648;2023-05-19T07:33:19;4.28;;;3.47;;
54993;SDS011;40891;47.242;8.648;2023-05-19T07:35:44;5.45;;;3.13;;
54993;SDS011;40891;47.242;8.648;2023-05-19T07:38:10;6.50;;;3.50;;
54993;SDS011;40891;47.242;8.648;2023-05-19T07:40:36;4.60;;;3.10;;
54993;SDS011;40891;47.242;8.648;2023-05-19T07:43:01;4.97;;;3.33;;
54993;SDS011;40891;47.242;8.648;2023-05-19T07:45:26;6.00;;;3.50;;
54993;SDS011;40891;47.242;8.648;2023-05-19T07:47:52;4.53;;;3.10;;
54993;SDS011;40891;47.242;8.648;2023-05-19T07:50:18;5.17;;;3.50;;
54993;SDS011;40891;47.242;8.648;2023-05-19T07:52:43;6.00;;;3.43;;
54993;SDS011;40891;47.242;8.648;2023-05-19T07:55:08;5.22;;;3.10;;
54993;SDS011;40891;47.242;8.648;2023-05-19T07:57:36;5.72;;;3.60;;
54993;SDS011;40891;47.242;8.648;2023-05-19T08:00:01;6.80;;;3.50;;
54993;SDS011;40891;47.242;8.648;2023-05-19T08:02:31;6.60;;;3.50;;
54993;SDS011;40891;47.242;8.648;2023-05-19T08:04:57;8.40;;;3.95;;
54993;SDS011;40891;47.242;8.648;2023-05-19T08:07:23;7.28;;;3.42;;
54993;SDS011;40891;47.242;8.648;2023-05-19T08:09:48;5.68;;;3.95;;
54993;SDS011;40891;47.242;8.648;2023-05-19T08:12:13;6.47;;;3.75;;
54993;SDS011;40891;47.242;8.648;2023-05-19T08:14:38;8.45;;;3.60;;
54993;SDS011;40891;47.242;8.648;2023-05-19T08:17:04;7.03;;;3.65;;
54993;SDS011;40891;47.242;8.648;2023-05-19T08:19:30;6.13;;;3.63;;
54993;SDS011;40891;47.242;8.648;2023-05-19T08:21:55;7.97;;;3.65;;
54993;SDS011;40891;47.242;8.648;2023-05-19T08:24:21;4.75;;;3.38;;
54993;SDS011;40891;47.242;8.648;2023-05-19T08:26:46;6.18;;;4.15;;
54993;SDS011;40891;47.242;8.648;2023-05-19T08:29:12;5.95;;;4.07;;
54993;SDS011;40891;47.242;8.648;2023-05-19T08:31:37;5.05;;;3.78;;
54993;SDS011;40891;47.242;8.648;2023-05-19T08:34:02;5.57;;;3.50;;
54993;SDS011;40891;47.242;8.648;2023-05-19T08:36:28;4.70;;;3.60;;
54993;SDS011;40891;47.242;8.648;2023-05-19T08:38:54;8.30;;;3.88;;
54993;SDS011;40891;47.242;8.648;2023-05-19T08:41:20;6.10;;;3.97;;
54993;SDS011;40891;47.242;8.648;2023-05-19T08:43:46;7.63;;;3.65;;
54993;SDS011;40891;47.242;8.648;2023-05-19T08:46:12;6.13;;;3.95;;
54993;SDS011;40891;47.242;8.648;2023-05-19T08:48:41;12.45;;;4.07;;
54993;SDS011;40891;47.242;8.648;2023-05-19T08:54:14;8.20;;;4.35;;
54993;SDS011;40891;47.242;8.648;2023-05-19T08:56:41;6.20;;;3.75;;
54993;SDS011;40891;47.242;8.648;2023-05-19T08:59:11;5.00;;;3.63;;
54993;SDS011;40891;47.242;8.648;2023-05-19T09:01:38;8.50;;;4.03;;
54993;SDS011;40891;47.242;8.648;2023-05-19T09:04:06;9.45;;;3.20;;
54993;SDS011;40891;47.242;8.648;2023-05-19T09:06:32;5.47;;;4.10;;
54993;SDS011;40891;47.242;8.648;2023-05-19T09:08:58;6.07;;;3.88;;
54993;SDS011;40891;47.242;8.648;2023-05-19T09:11:24;5.72;;;3.92;;
54993;SDS011;40891;47.242;8.648;2023-05-19T09:13:50;10.57;;;4.85;;
54993;SDS011;40891;47.242;8.648;2023-05-19T09:16:15;5.85;;;3.83;;
54993;SDS011;40891;47.242;8.648;2023-05-19T09:18:52;5.82;;;3.83;;
54993;SDS011;40891;47.242;8.648;2023-05-19T09:21:19;7.50;;;3.65;;
54993;SDS011;40891;47.242;8.648;2023-05-19T09:23:44;7.57;;;4.20;;
54993;SDS011;40891;47.242;8.648;2023-05-19T09:26:11;6.95;;;4.65;;
54993;SDS011;40891;47.242;8.648;2023-05-19T09:28:39;5.35;;;4.03;;
54993;SDS011;40891;47.242;8.648;2023-05-19T09:31:08;6.40;;;3.92;;
54993;SDS011;40891;47.242;8.648;2023-05-19T09:33:35;6.93;;;3.47;;
54993;SDS011;40891;47.242;8.648;2023-05-19T09:36:02;4.65;;;3.67;;
54993;SDS011;40891;47.242;8.648;2023-05-19T09:38:30;6.60;;;4.18;;
54993;SDS011;40891;47.242;8.648;2023-05-19T09:40:56;5.85;;;4.13;;
54993;SDS011;40891;47.242;8.648;2023-05-19T09:43:22;6.00;;;3.95;;
54993;SDS011;40891;47.242;8.648;2023-05-19T09:45:48;7.93;;;3.53;;
54993;SDS011;40891;47.242;8.648;2023-05-19T09:48:19;6.70;;;4.20;;
54993;SDS011;40891;47.242;8.648;2023-05-19T09:50:44;6.18;;;4.07;;
54993;SDS011;40891;47.242;8.648;2023-05-19T09:53:15;6.53;;;4.22;;
54993;SDS011;40891;47.242;8.648;2023-05-19T09:55:42;9.52;;;4.00;;
54993;SDS011;40891;47.242;8.648;2023-05-19T09:58:08;6.30;;;4.22;;
54993;SDS011;40891;47.242;8.648;2023-05-19T10:00:34;7.75;;;4.90;;
54993;SDS011;40891;47.242;8.648;2023-05-19T10:03:00;5.32;;;3.83;;
54993;SDS011;40891;47.242;8.648;2023-05-19T10:05:28;4.18;;;3.75;;
54993;SDS011;40891;47.242;8.648;2023-05-19T10:07:55;6.68;;;4.00;;
54993;SDS011;40891;47.242;8.648;2023-05-19T10:10:21;6.13;;;3.95;;
54993;SDS011;40891;47.242;8.648;2023-05-19T10:12:47;5.65;;;3.83;;
54993;SDS011;40891;47.242;8.648;2023-05-19T10:15:15;8.30;;;4.25;;
54993;SDS011;40891;47.242;8.648;2023-05-19T10:17:42;6.40;;;4.07;;
54993;SDS011;40891;47.242;8.648;2023-05-19T10:20:09;8.25;;;4.20;;
54993;SDS011;40891;47.242;8.648;2023-05-19T10:22:39;12.05;;;3.97;;
54993;SDS011;40891;47.242;8.648;2023-05-19T10:25:07;10.00;;;4.47;;
54993;SDS011;40891;47.242;8.648;2023-05-19T10:27:34;7.53;;;4.10;;
54993;SDS011;40891;47.242;8.648;2023-05-19T10:30:25;7.80;;;4.90;;
54993;SDS011;40891;47.242;8.648;2023-05-19T10:32:59;7.07;;;4.20;;
54993;SDS011;40891;47.242;8.648;2023-05-19T10:38:23;9.73;;;4.28;;
54993;SDS011;40891;47.242;8.648;2023-05-19T10:46:00;8.23;;;4.30;;
54993;SDS011;40891;47.242;8.648;2023-05-19T10:48:26;6.78;;;4.15;;
54993;SDS011;40891;47.242;8.648;2023-05-19T10:50:57;6.03;;;3.72;;
54993;SDS011;40891;47.242;8.648;2023-05-19T10:53:29;7.13;;;3.80;;
54993;SDS011;40891;47.242;8.648;2023-05-19T10:55:55;8.88;;;4.05;;
54993;SDS011;40891;47.242;8.648;2023-05-19T11:01:17;6.47;;;3.88;;
54993;SDS011;40891;47.242;8.648;2023-05-19T11:03:53;7.88;;;4.13;;
54993;SDS011;40891;47.242;8.648;2023-05-19T11:06:33;7.03;;;4.03;;
54993;SDS011;40891;47.242;8.648;2023-05-19T11:09:10;4.32;;;3.58;;
54993;SDS011;40891;47.242;8.648;2023-05-19T11:11:44;6.70;;;3.95;;
54993;SDS011;40891;47.242;8.648;2023-05-19T11:14:14;8.02;;;4.68;;
54993;SDS011;40891;47.242;8.648;2023-05-19T11:16:41;6.32;;;4.22;;
54993;SDS011;40891;47.242;8.648;2023-05-19T11:19:16;9.35;;;4.00;;
54993;SDS011;40891;47.242;8.648;2023-05-19T11:27:24;6.55;;;4.43;;
54993;SDS011;40891;47.242;8.648;2023-05-19T11:29:55;5.80;;;4.13;;
54993;SDS011;40891;47.242;8.648;2023-05-19T11:32:35;11.32;;;3.92;;
54993;SDS011;40891;47.242;8.648;2023-05-19T11:35:05;9.32;;;4.07;;
54993;SDS011;40891;47.242;8.648;2023-05-19T11:37:32;7.53;;;4.22;;
54993;SDS011;40891;47.242;8.648;2023-05-19T11:40:00;7.70;;;4.07;;
54993;SDS011;40891;47.242;8.648;2023-05-19T11:42:26;9.40;;;4.25;;
54993;SDS011;40891;47.242;8.648;2023-05-19T11:44:53;5.88;;;3.83;;
54993;SDS011;40891;47.242;8.648;2023-05-19T11:47:20;9.48;;;4.45;;
54993;SDS011;40891;47.242;8.648;2023-05-19T11:49:46;4.80;;;4.03;;
54993;SDS011;40891;47.242;8.648;2023-05-19T11:52:12;7.80;;;4.20;;
54993;SDS011;40891;47.242;8.648;2023-05-19T11:54:38;10.32;;;4.30;;
54993;SDS011;40891;47.242;8.648;2023-05-19T11:57:06;6.10;;;4.30;;
54993;SDS011;40891;47.242;8.648;2023-05-19T11:59:33;8.48;;;4.20;;
54993;SDS011;40891;47.242;8.648;2023-05-19T12:02:01;6.32;;;4.13;;
54993;SDS011;40891;47.242;8.648;2023-05-19T12:04:28;6.40;;;3.88;;
54993;SDS011;40891;47.242;8.648;2023-05-19T12:06:54;6.03;;;3.65;;
54993;SDS011;40891;47.242;8.648;2023-05-19T12:09:21;4.70;;;3.63;;
54993;SDS011;40891;47.242;8.648;2023-05-19T12:11:47;8.57;;;3.95;;
54993;SDS011;40891;47.242;8.648;2023-05-19T12:14:13;7.95;;;4.18;;
54993;SDS011;40891;47.242;8.648;2023-05-19T12:16:39;5.93;;;4.05;;
54993;SDS011;40891;47.242;8.648;2023-05-19T12:19:06;6.20;;;3.80;;
54993;SDS011;40891;47.242;8.648;2023-05-19T12:21:31;8.15;;;4.10;;
54993;SDS011;40891;47.242;8.648;2023-05-19T12:23:57;4.78;;;4.13;;
54993;SDS011;40891;47.242;8.648;2023-05-19T12:26:23;4.85;;;3.85;;
54993;SDS011;40891;47.242;8.648;2023-05-19T12:28:49;7.28;;;3.92;;
54993;SDS011;40891;47.242;8.648;2023-05-19T12:31:15;5.45;;;3.75;;
54993;SDS011;40891;47.242;8.648;2023-05-19T12:33:41;5.50;;;3.80;;
54993;SDS011;40891;47.242;8.648;2023-05-19T12:36:07;6.40;;;4.03;;
54993;SDS011;40891;47.242;8.648;2023-05-19T12:38:33;6.75;;;4.00;;
54993;SDS011;40891;47.242;8.648;2023-05-19T12:41:01;7.95;;;4.13;;
54993;SDS011;40891;47.242;8.648;2023-05-19T12:43:27;14.05;;;6.43;;
54993;SDS011;40891;47.242;8.648;2023-05-19T12:45:52;8.18;;;5.40;;
54993;SDS011;40891;47.242;8.648;2023-05-19T12:48:20;7.90;;;5.18;;
54993;SDS011;40891;47.242;8.648;2023-05-19T12:50:46;8.32;;;5.50;;
54993;SDS011;40891;47.242;8.648;2023-05-19T12:53:13;7.45;;;4.30;;
54993;SDS011;40891;47.242;8.648;2023-05-19T12:55:39;6.80;;;4.75;;
54993;SDS011;40891;47.242;8.648;2023-05-19T12:58:06;6.15;;;4.55;;
54993;SDS011;40891;47.242;8.648;2023-05-19T13:00:32;6.82;;;4.75;;
54993;SDS011;40891;47.242;8.648;2023-05-19T13:05:25;7.72;;;4.53;;
54993;SDS011;40891;47.242;8.648;2023-05-19T13:07:55;7.70;;;4.75;;
54993;SDS011;40891;47.242;8.648;2023-05-19T13:10:42;6.90;;;4.18;;
54993;SDS011;40891;47.242;8.648;2023-05-19T13:13:08;6.97;;;4.63;;
54993;SDS011;40891;47.242;8.648;2023-05-19T13:15:35;6.00;;;4.47;;
54993;SDS011;40891;47.242;8.648;2023-05-19T13:18:04;9.88;;;4.45;;
54993;SDS011;40891;47.242;8.648;2023-05-19T13:20:30;9.43;;;5.70;;
54993;SDS011;40891;47.242;8.648;2023-05-19T13:22:59;7.38;;;4.65;;
54993;SDS011;40891;47.242;8.648;2023-05-19T13:25:25;8.27;;;4.40;;
54993;SDS011;40891;47.242;8.648;2023-05-19T13:27:51;5.75;;;4.18;;
54993;SDS011;40891;47.242;8.648;2023-05-19T13:30:17;7.38;;;4.30;;
54993;SDS011;40891;47.242;8.648;2023-05-19T13:32:43;8.35;;;4.03;;
54993;SDS011;40891;47.242;8.648;2023-05-19T13:35:09;7.13;;;4.28;;
54993;SDS011;40891;47.242;8.648;2023-05-19T13:37:34;9.90;;;4.47;;
54993;SDS011;40891;47.242;8.648;2023-05-19T13:40:00;7.43;;;4.43;;
54993;SDS011;40891;47.242;8.648;2023-05-19T13:42:26;8.32;;;4.18;;
54993;SDS011;40891;47.242;8.648;2023-05-19T13:44:55;8.45;;;4.63;;
54993;SDS011;40891;47.242;8.648;2023-05-19T13:47:23;6.22;;;4.10;;
54993;SDS011;40891;47.242;8.648;2023-05-19T13:49:49;6.10;;;4.65;;
54993;SDS011;40891;47.242;8.648;2023-05-19T13:52:15;10.57;;;5.10;;
54993;SDS011;40891;47.242;8.648;2023-05-19T13:54:41;5.35;;;4.25;;
54993;SDS011;40891;47.242;8.648;2023-05-19T13:57:06;6.90;;;4.18;;
54993;SDS011;40891;47.242;8.648;2023-05-19T13:59:32;8.02;;;4.65;;
54993;SDS011;40891;47.242;8.648;2023-05-19T14:01:59;6.22;;;4.32;;
54993;SDS011;40891;47.242;8.648;2023-05-19T14:04:26;5.68;;;4.13;;
54993;SDS011;40891;47.242;8.648;2023-05-19T14:06:52;5.68;;;4.03;;
54993;SDS011;40891;47.242;8.648;2023-05-19T14:09:17;7.00;;;4.78;;
54993;SDS011;40891;47.242;8.648;2023-05-19T14:11:43;8.95;;;4.30;;
54993;SDS011;40891;47.242;8.648;2023-05-19T14:14:08;6.78;;;4.70;;
54993;SDS011;40891;47.242;8.648;2023-05-19T14:16:34;7.22;;;4.25;;
54993;SDS011;40891;47.242;8.648;2023-05-19T14:18:59;6.63;;;4.95;;
54993;SDS011;40891;47.242;8.648;2023-05-19T14:21:25;8.02;;;5.00;;
54993;SDS011;40891;47.242;8.648;2023-05-19T14:23:50;7.32;;;3.90;;
54993;SDS011;40891;47.242;8.648;2023-05-19T14:26:16;7.25;;;4.47;;
54993;SDS011;40891;47.242;8.648;2023-05-19T14:28:42;7.10;;;4.43;;
54993;SDS011;40891;47.242;8.648;2023-05-19T14:31:11;8.57;;;4.30;;
54993;SDS011;40891;47.242;8.648;2023-05-19T14:33:37;6.18;;;4.70;;
54993;SDS011;40891;47.242;8.648;2023-05-19T14:36:02;7.65;;;4.38;;
54993;SDS011;40891;47.242;8.648;2023-05-19T14:38:29;9.10;;;3.78;;
54993;SDS011;40891;47.242;8.648;2023-05-19T14:40:54;6.72;;;4.32;;
54993;SDS011;40891;47.242;8.648;2023-05-19T14:43:20;7.63;;;4.60;;
54993;SDS011;40891;47.242;8.648;2023-05-19T14:45:45;7.35;;;4.32;;
54993;SDS011;40891;47.242;8.648;2023-05-19T14:48:11;8.23;;;3.72;;
54993;SDS011;40891;47.242;8.648;2023-05-19T14:50:36;5.65;;;3.75;;
54993;SDS011;40891;47.242;8.648;2023-05-19T14:53:02;8.95;;;4.82;;
54993;SDS011;40891;47.242;8.648;2023-05-19T14:55:27;6.35;;;4.63;;
54993;SDS011;40891;47.242;8.648;2023-05-19T14:57:53;8.05;;;4.20;;
54993;SDS011;40891;47.242;8.648;2023-05-19T15:00:18;7.75;;;4.38;;
54993;SDS011;40891;47.242;8.648;2023-05-19T15:02:43;8.40;;;4.53;;
54993;SDS011;40891;47.242;8.648;2023-05-19T15:05:09;8.30;;;4.72;;
54993;SDS011;40891;47.242;8.648;2023-05-19T15:07:35;7.30;;;5.00;;
54993;SDS011;40891;47.242;8.648;2023-05-19T15:10:01;6.55;;;4.18;;
54993;SDS011;40891;47.242;8.648;2023-05-19T15:12:26;9.13;;;4.60;;
54993;SDS011;40891;47.242;8.648;2023-05-19T15:14:52;7.32;;;4.25;;
54993;SDS011;40891;47.242;8.648;2023-05-19T15:17:17;6.88;;;4.93;;
54993;SDS011;40891;47.242;8.648;2023-05-19T15:19:42;7.07;;;4.57;;
54993;SDS011;40891;47.242;8.648;2023-05-19T15:22:08;8.60;;;4.90;;
54993;SDS011;40891;47.242;8.648;2023-05-19T15:24:34;6.18;;;4.70;;
54993;SDS011;40891;47.242;8.648;2023-05-19T15:26:59;7.60;;;4.80;;
54993;SDS011;40891;47.242;8.648;2023-05-19T15:29:25;6.40;;;4.32;;